createdAt,value
2019-05-17T00:02:21.907Z,12.85
2019-05-17T00:04:52.640Z,12.18
2019-05-17T00:07:23.055Z,11.50
2019-05-17T00:09:53.419Z,9.60
2019-05-17T00:12:24.151Z,9.38
2019-05-17T00:14:56.290Z,9.28
2019-05-17T00:17:26.861Z,12.78
2019-05-17T00:19:57.208Z,11.57
2019-05-17T00:22:27.550Z,11.15
2019-05-17T00:24:57.983Z,12.70
2019-05-17T00:27:28.813Z,10.60
2019-05-17T00:29:59.188Z,9.55
2019-05-17T00:32:29.949Z,10.45
2019-05-17T00:35:00.324Z,10.50
2019-05-17T00:37:30.714Z,9.28
2019-05-17T00:40:01.058Z,9.55
2019-05-17T00:42:31.469Z,8.78
2019-05-17T00:45:02.177Z,9.00
2019-05-17T00:47:32.557Z,8.18
2019-05-17T00:50:03.521Z,7.95
2019-05-17T00:52:33.873Z,7.67
2019-05-17T00:55:06.713Z,7.92
2019-05-17T00:57:37.314Z,7.65
2019-05-17T01:00:08.679Z,7.03
2019-05-17T01:02:39.193Z,6.40
2019-05-17T01:05:09.556Z,5.22
2019-05-17T01:07:39.917Z,5.47
2019-05-17T01:10:10.330Z,5.75
2019-05-17T01:12:40.734Z,5.42
2019-05-17T01:15:11.470Z,6.78
2019-05-17T01:17:41.853Z,6.05
2019-05-17T01:20:12.633Z,5.62
2019-05-17T01:22:43.004Z,5.55
2019-05-17T01:25:14.161Z,5.83
2019-05-17T01:27:47.215Z,5.95
2019-05-17T01:30:17.689Z,6.40
2019-05-17T01:32:48.297Z,6.20
2019-05-17T01:35:18.703Z,5.90
2019-05-17T01:37:49.336Z,6.53
2019-05-17T01:40:20.532Z,5.45
2019-05-17T01:42:50.903Z,5.95
2019-05-17T01:45:21.267Z,5.50
2019-05-17T01:47:51.684Z,5.20
2019-05-17T01:50:22.073Z,5.35
2019-05-17T01:52:52.766Z,5.22
2019-05-17T01:55:23.219Z,6.33
2019-05-17T01:57:56.330Z,5.47
2019-05-17T02:00:26.617Z,5.67
2019-05-17T02:02:57.828Z,4.67
2019-05-17T02:05:28.251Z,5.95
2019-05-17T02:07:58.923Z,6.40
2019-05-17T02:10:29.265Z,4.60
2019-05-17T02:12:59.669Z,5.35
2019-05-17T02:15:49.744Z,5.60
2019-05-17T02:18:20.256Z,5.15
2019-05-17T02:20:51.248Z,4.90
2019-05-17T02:23:21.726Z,6.05
2019-05-17T02:25:52.131Z,5.03
2019-05-17T02:28:22.789Z,5.58
2019-05-17T02:30:53.505Z,5.62
2019-05-17T02:33:23.855Z,4.83
2019-05-17T02:35:54.618Z,4.78
2019-05-17T02:38:24.981Z,5.58
2019-05-17T02:40:55.316Z,6.75
2019-05-17T02:43:26.203Z,5.40
2019-05-17T02:45:56.582Z,7.12
2019-05-17T02:48:26.915Z,6.80
2019-05-17T02:50:57.665Z,6.90
2019-05-17T02:53:28.054Z,7.85
2019-05-17T02:55:58.415Z,8.05
2019-05-17T02:58:28.775Z,7.53
2019-05-17T03:00:59.139Z,7.05
2019-05-17T03:03:32.107Z,6.17
2019-05-17T03:06:03.029Z,6.95
2019-05-17T03:08:34.522Z,6.85
2019-05-17T03:11:05.751Z,7.75
2019-05-17T03:13:36.465Z,8.43
2019-05-17T03:16:06.882Z,8.68
2019-05-17T03:18:37.622Z,7.65
2019-05-17T03:21:07.975Z,8.53
2019-05-17T03:23:38.407Z,7.40
2019-05-17T03:26:08.760Z,6.75
2019-05-17T03:28:42.450Z,6.60
2019-05-17T03:31:16.718Z,6.15
2019-05-17T03:33:46.019Z,6.50
2019-05-17T03:36:17.547Z,6.20
2019-05-17T03:38:48.643Z,7.58
2019-05-17T03:41:24.830Z,6.53
2019-05-17T03:43:53.333Z,6.15
2019-05-17T03:46:24.136Z,7.28
2019-05-17T03:48:54.799Z,7.22
2019-05-17T03:51:25.936Z,7.50
2019-05-17T03:53:56.271Z,8.38
2019-05-17T03:56:26.616Z,8.20
2019-05-17T03:58:57.003Z,7.75
2019-05-17T04:01:27.776Z,9.13
2019-05-17T04:03:58.482Z,8.95
2019-05-17T04:06:28.845Z,7.42
2019-05-17T04:08:59.203Z,7.12
2019-05-17T04:11:32.869Z,7.62
2019-05-17T04:14:03.082Z,7.80
2019-05-17T04:16:34.210Z,9.05
2019-05-17T04:19:04.937Z,8.18
2019-05-17T04:21:35.575Z,7.53
2019-05-17T04:24:05.979Z,7.22
2019-05-17T04:26:36.322Z,5.87
2019-05-17T04:29:07.276Z,6.75
2019-05-17T04:31:38.060Z,6.58
2019-05-17T04:34:08.467Z,6.60
2019-05-17T04:36:39.471Z,6.83
2019-05-17T04:39:13.128Z,6.07
2019-05-17T04:41:49.762Z,6.87
2019-05-17T04:44:15.052Z,6.55
2019-05-17T04:46:45.786Z,6.08
2019-05-17T04:49:16.149Z,6.20
2019-05-17T04:51:46.481Z,5.40
2019-05-17T04:54:17.199Z,5.90
2019-05-17T04:56:47.556Z,6.30
2019-05-17T04:59:17.954Z,6.13
2019-05-17T05:01:48.319Z,4.97
2019-05-17T05:04:18.706Z,6.20
2019-05-17T05:06:52.274Z,5.80
2019-05-17T05:09:23.051Z,5.47
2019-05-17T05:12:01.158Z,5.50
2019-05-17T05:14:25.723Z,6.20
2019-05-17T05:16:56.110Z,5.43
2019-05-17T05:19:26.500Z,5.87
2019-05-17T05:21:57.230Z,6.20
2019-05-17T05:24:27.562Z,5.77
2019-05-17T05:26:57.916Z,6.83
2019-05-17T05:29:28.249Z,6.40
2019-05-17T05:31:58.886Z,7.37
2019-05-17T05:34:29.291Z,7.60
2019-05-17T05:37:01.904Z,9.00
2019-05-17T05:39:32.259Z,8.70
2019-05-17T05:42:08.112Z,8.27
2019-05-17T05:44:34.727Z,8.77
2019-05-17T05:47:05.077Z,9.10
2019-05-17T05:49:35.427Z,9.77
2019-05-17T05:52:06.190Z,7.83
2019-05-17T05:54:36.538Z,8.87
2019-05-17T05:57:06.911Z,10.00
2019-05-17T05:59:56.717Z,11.47
2019-05-17T06:02:27.124Z,12.50
2019-05-17T06:04:57.778Z,14.43
2019-05-17T06:07:28.172Z,16.53
2019-05-17T06:09:58.980Z,15.87
2019-05-17T06:12:32.100Z,14.93
2019-05-17T06:15:02.720Z,14.87
2019-05-17T06:17:33.548Z,15.63
2019-05-17T06:20:04.801Z,16.43
2019-05-17T06:22:35.531Z,16.47
2019-05-17T06:25:07.601Z,16.37
2019-05-17T06:27:38.326Z,15.80
2019-05-17T06:30:08.673Z,16.07
2019-05-17T06:32:39.230Z,16.07
2019-05-17T06:35:12.319Z,17.90
2019-05-17T06:37:42.594Z,19.70
2019-05-17T06:40:13.471Z,17.70
2019-05-17T06:42:45.711Z,18.30
2019-05-17T06:45:16.563Z,18.20
2019-05-17T06:47:46.952Z,18.10
2019-05-17T06:50:17.310Z,19.97
2019-05-17T06:52:48.056Z,18.13
2019-05-17T06:55:18.764Z,18.00
2019-05-17T06:57:49.113Z,16.83
2019-05-17T07:00:23.790Z,16.00
2019-05-17T07:02:52.055Z,16.93
2019-05-17T07:05:24.123Z,15.33
2019-05-17T07:07:54.767Z,15.20
2019-05-17T07:10:25.160Z,16.20
2019-05-17T07:12:58.954Z,15.20
2019-05-17T07:15:40.051Z,14.07
2019-05-17T07:18:00.323Z,13.13
2019-05-17T07:20:31.421Z,11.40
2019-05-17T07:23:01.801Z,11.93
2019-05-17T07:25:32.554Z,11.87
2019-05-17T07:28:03.253Z,9.70
2019-05-17T07:30:33.663Z,10.30
2019-05-17T07:33:04.019Z,11.63
2019-05-17T07:35:35.153Z,9.60
2019-05-17T07:38:05.501Z,10.47
2019-05-17T07:40:35.844Z,10.50
2019-05-17T07:43:10.878Z,9.93
2019-05-17T07:45:40.473Z,11.40
2019-05-17T07:48:10.801Z,11.03
2019-05-17T07:50:41.564Z,10.07
2019-05-17T07:53:12.052Z,10.60
2019-05-17T07:55:42.796Z,8.90
2019-05-17T07:58:13.186Z,9.67
2019-05-17T08:00:43.568Z,8.33
2019-05-17T08:03:13.962Z,8.93
2019-05-17T08:05:44.886Z,8.90
2019-05-17T08:08:15.258Z,6.70
2019-05-17T08:10:45.622Z,9.33
2019-05-17T08:13:27.350Z,8.33
2019-05-17T08:15:50.196Z,9.50
2019-05-17T08:18:20.578Z,8.60
2019-05-17T08:20:51.534Z,10.03
2019-05-17T08:23:21.930Z,9.60
2019-05-17T08:25:56.128Z,10.60
2019-05-17T08:28:27.139Z,9.50
2019-05-17T08:30:56.398Z,9.00
2019-05-17T08:33:26.763Z,10.27
2019-05-17T08:35:59.633Z,9.33
2019-05-17T08:38:30.576Z,9.63
2019-05-17T08:41:01.785Z,10.07
2019-05-17T08:43:45.106Z,9.60
2019-05-17T08:46:04.504Z,8.87
2019-05-17T08:48:34.913Z,9.80
2019-05-17T08:51:06.199Z,9.13
2019-05-17T08:53:37.293Z,9.57
2019-05-17T08:56:10.055Z,10.53
2019-05-17T08:58:40.712Z,7.97
2019-05-17T09:01:11.481Z,8.10
2019-05-17T09:03:41.820Z,7.97
2019-05-17T09:06:12.759Z,7.63
2019-05-17T09:08:43.241Z,7.00
2019-05-17T09:11:14.328Z,7.77
2019-05-17T09:13:57.254Z,7.10
2019-05-17T09:16:16.730Z,7.30
2019-05-17T09:18:47.442Z,7.10
2019-05-17T09:21:21.707Z,7.17
2019-05-17T09:23:51.595Z,7.13
2019-05-17T09:26:22.301Z,7.43
2019-05-17T09:28:52.902Z,8.17
2019-05-17T09:31:23.641Z,8.27
2019-05-17T09:33:54.365Z,7.23
2019-05-17T09:36:24.919Z,6.27
2019-05-17T09:38:55.653Z,7.20
2019-05-17T09:41:26.036Z,6.73
2019-05-17T09:44:09.572Z,7.60
2019-05-17T09:46:30.255Z,6.70
2019-05-17T09:49:01.328Z,6.93
2019-05-17T09:51:32.134Z,7.30
2019-05-17T09:54:02.521Z,7.50
2019-05-17T09:56:33.166Z,6.60
2019-05-17T09:59:03.972Z,6.57
2019-05-17T10:01:34.321Z,7.03
2019-05-17T10:04:04.702Z,6.90
2019-05-17T10:06:35.423Z,6.90
2019-05-17T10:09:06.738Z,7.23
2019-05-17T10:11:37.232Z,6.60
2019-05-17T10:14:10.128Z,6.83
2019-05-17T10:16:39.950Z,7.73
2019-05-17T10:19:11.047Z,7.23
2019-05-17T10:21:42.239Z,6.57
2019-05-17T10:24:12.933Z,6.77
2019-05-17T10:26:43.300Z,7.90
2019-05-17T10:29:13.685Z,6.57
2019-05-17T10:31:44.041Z,6.50
2019-05-17T10:34:14.378Z,6.40
2019-05-17T10:36:44.785Z,6.20
2019-05-17T10:39:16.302Z,6.07
2019-05-17T10:41:46.670Z,6.80
2019-05-17T10:44:17.032Z,5.80
2019-05-17T10:46:47.398Z,6.67
2019-05-17T10:49:20.084Z,5.30
2019-05-17T10:51:49.892Z,5.17
2019-05-17T10:54:20.744Z,6.13
2019-05-17T10:56:51.298Z,6.00
2019-05-17T10:59:22.138Z,6.77
2019-05-17T11:01:53.128Z,5.60
2019-05-17T11:04:23.905Z,6.23
2019-05-17T11:06:54.238Z,6.60
2019-05-17T11:09:24.657Z,5.00
2019-05-17T11:11:55.359Z,5.87
2019-05-17T11:14:25.870Z,6.90
2019-05-17T11:16:56.198Z,6.90
2019-05-17T11:19:27.192Z,6.23
2019-05-17T11:21:57.571Z,6.10
2019-05-17T11:24:27.910Z,5.83
2019-05-17T11:26:58.298Z,6.10
2019-05-17T11:29:28.625Z,6.40
2019-05-17T11:31:58.997Z,6.70
2019-05-17T11:34:29.330Z,6.07
2019-05-17T11:36:59.723Z,6.93
2019-05-17T11:39:30.086Z,5.57
2019-05-17T11:42:00.588Z,6.33
2019-05-17T11:44:30.917Z,5.77
2019-05-17T11:47:01.256Z,6.90
2019-05-17T11:49:31.705Z,6.13
2019-05-17T11:52:02.732Z,6.70
2019-05-17T11:54:33.340Z,6.17
2019-05-17T11:57:03.730Z,6.30
2019-05-17T11:59:34.093Z,6.90
2019-05-17T12:02:04.479Z,5.67
2019-05-17T12:04:34.858Z,7.47
2019-05-17T12:07:05.769Z,6.20
2019-05-17T12:09:37.880Z,5.97
2019-05-17T12:12:08.778Z,5.53
2019-05-17T12:14:39.398Z,6.10
2019-05-17T12:17:09.737Z,6.10
2019-05-17T12:19:40.470Z,5.67
2019-05-17T12:22:11.079Z,6.60
2019-05-17T12:24:41.792Z,6.37
2019-05-17T12:27:12.539Z,6.80
2019-05-17T12:29:42.922Z,6.10
2019-05-17T12:32:16.915Z,6.37
2019-05-17T12:34:45.454Z,6.60
2019-05-17T12:37:16.106Z,6.97
2019-05-17T12:39:46.483Z,6.90
2019-05-17T12:42:16.886Z,6.80
2019-05-17T12:44:47.247Z,6.73
2019-05-17T12:47:17.872Z,6.50
2019-05-17T12:49:48.545Z,6.87
2019-05-17T12:52:18.913Z,7.20
2019-05-17T12:54:49.271Z,8.10
2019-05-17T12:57:19.640Z,7.17
2019-05-17T12:59:50.375Z,7.57
2019-05-17T13:02:20.718Z,7.20
2019-05-17T13:04:51.560Z,6.43
2019-05-17T13:07:22.685Z,7.67
2019-05-17T13:09:53.057Z,7.10
2019-05-17T13:12:23.870Z,6.33
2019-05-17T13:14:54.235Z,6.60
2019-05-17T13:17:24.750Z,7.90
2019-05-17T13:19:55.433Z,6.73
2019-05-17T13:22:26.106Z,7.20
2019-05-17T13:24:56.436Z,6.67
2019-05-17T13:27:26.844Z,6.33
2019-05-17T13:29:57.304Z,7.00
2019-05-17T13:32:27.578Z,6.63
2019-05-17T13:34:57.949Z,7.40
2019-05-17T13:37:28.297Z,6.87
2019-05-17T13:39:58.629Z,7.23
2019-05-17T13:42:29.415Z,7.20
2019-05-17T13:44:59.752Z,7.43
2019-05-17T13:47:30.467Z,7.00
2019-05-17T13:50:00.841Z,7.70
2019-05-17T13:52:31.235Z,7.78
2019-05-17T13:55:01.645Z,7.30
2019-05-17T13:57:31.975Z,7.10
2019-05-17T14:00:03.058Z,6.97
2019-05-17T14:02:33.395Z,6.77
2019-05-17T14:05:05.681Z,6.93
2019-05-17T14:07:36.070Z,7.23
2019-05-17T14:10:06.836Z,6.33
2019-05-17T14:12:37.252Z,6.90
2019-05-17T14:15:11.775Z,6.70
2019-05-17T14:17:42.479Z,5.77
2019-05-17T14:20:13.226Z,7.70
2019-05-17T14:22:43.585Z,6.57
2019-05-17T14:25:13.994Z,6.27
2019-05-17T14:27:44.410Z,6.70
2019-05-17T14:30:14.810Z,6.57
2019-05-17T14:32:45.174Z,6.00
2019-05-17T14:35:17.171Z,5.83
2019-05-17T14:37:47.565Z,5.90
2019-05-17T14:40:17.937Z,6.40
2019-05-17T14:42:48.276Z,6.10
2019-05-17T14:45:19.334Z,6.30
2019-05-17T14:47:50.373Z,7.10
2019-05-17T14:50:20.799Z,6.40
2019-05-17T14:52:51.361Z,6.63
2019-05-17T14:55:21.747Z,6.47
2019-05-17T14:57:52.412Z,6.77
2019-05-17T15:00:23.193Z,6.83
2019-05-17T15:02:53.570Z,6.80
2019-05-17T15:05:23.935Z,6.13
2019-05-17T15:07:54.637Z,5.80
2019-05-17T15:10:25.709Z,5.30
2019-05-17T15:12:56.813Z,6.10
2019-05-17T15:15:27.296Z,5.63
2019-05-17T15:17:57.654Z,4.90
2019-05-17T15:20:28.034Z,5.67
2019-05-17T15:22:58.361Z,5.10
2019-05-17T15:25:28.754Z,5.10
2019-05-17T15:27:59.479Z,5.17
2019-05-17T15:30:30.351Z,5.30
2019-05-17T15:33:00.710Z,5.40
2019-05-17T15:35:31.307Z,5.40
2019-05-17T15:38:01.686Z,6.30
2019-05-17T15:40:32.120Z,5.77
2019-05-17T15:43:02.956Z,5.80
2019-05-17T15:45:33.554Z,5.00
2019-05-17T15:48:04.681Z,5.50
2019-05-17T15:50:35.096Z,5.07
2019-05-17T15:53:06.162Z,5.20
2019-05-17T15:55:36.495Z,5.13
2019-05-17T15:58:06.903Z,5.07
2019-05-17T16:00:37.259Z,4.50
2019-05-17T16:03:07.644Z,4.87
2019-05-17T16:05:38.005Z,5.30
2019-05-17T16:08:08.396Z,4.50
2019-05-17T16:10:38.774Z,5.10
2019-05-17T16:13:10.422Z,4.77
2019-05-17T16:15:41.177Z,4.40
2019-05-17T16:18:11.509Z,3.70
2019-05-17T16:20:41.866Z,4.27
2019-05-17T16:23:12.248Z,4.43
2019-05-17T16:25:42.804Z,4.87
2019-05-17T16:28:13.488Z,4.70
2019-05-17T16:30:44.634Z,4.90
2019-05-17T16:33:15.411Z,5.03
2019-05-17T16:35:45.728Z,4.93
2019-05-17T16:38:16.461Z,4.80
2019-05-17T16:40:46.818Z,5.60
2019-05-17T16:43:18.553Z,4.47
2019-05-17T16:45:49.136Z,5.07
2019-05-17T16:48:19.498Z,5.00
2019-05-17T16:50:49.878Z,5.07
2019-05-17T16:53:20.213Z,5.60
2019-05-17T16:55:50.632Z,5.63
2019-05-17T16:58:21.014Z,4.90
2019-05-17T17:00:51.746Z,5.53
2019-05-17T17:03:22.081Z,6.27
2019-05-17T17:05:53.181Z,5.70
2019-05-17T17:08:23.541Z,5.33
2019-05-17T17:10:53.896Z,5.53
2019-05-17T17:13:32.722Z,5.90
2019-05-17T17:15:56.860Z,5.40
2019-05-17T17:18:27.567Z,5.70
2019-05-17T17:20:57.988Z,6.23
2019-05-17T17:23:28.637Z,5.40
2019-05-17T17:25:59.128Z,5.90
2019-05-17T17:28:29.806Z,5.67
2019-05-17T17:31:00.168Z,6.70
2019-05-17T17:33:30.555Z,6.13
2019-05-17T17:36:01.176Z,5.53
2019-05-17T17:38:31.564Z,6.40
2019-05-17T17:41:01.917Z,6.30
2019-05-17T17:43:32.282Z,7.10
2019-05-17T17:46:02.668Z,6.50
2019-05-17T17:48:33.371Z,5.73
2019-05-17T17:51:04.148Z,6.13
2019-05-17T17:53:34.527Z,6.20
2019-05-17T17:56:05.260Z,6.57
2019-05-17T17:58:35.677Z,6.10
2019-05-17T18:01:06.435Z,7.57
2019-05-17T18:03:37.166Z,6.77
2019-05-17T18:06:07.556Z,7.57
2019-05-17T18:08:38.286Z,6.90
2019-05-17T18:11:09.038Z,6.90
2019-05-17T18:13:39.392Z,7.97
2019-05-17T18:16:09.807Z,7.60
2019-05-17T18:18:40.492Z,8.53
2019-05-17T18:21:11.449Z,9.27
2019-05-17T18:23:41.880Z,9.00
2019-05-17T18:26:12.693Z,7.80
2019-05-17T18:28:43.102Z,8.73
2019-05-17T18:31:13.555Z,8.90
2019-05-17T18:33:44.186Z,8.83
2019-05-17T18:36:14.605Z,9.33
2019-05-17T18:38:46.432Z,8.10
2019-05-17T18:41:16.803Z,9.47
2019-05-17T18:43:47.438Z,9.20
2019-05-17T18:46:18.165Z,9.13
2019-05-17T18:48:49.076Z,9.83
2019-05-17T18:51:19.804Z,8.90
2019-05-17T18:53:50.515Z,9.50
2019-05-17T18:56:21.453Z,9.67
2019-05-17T18:58:51.875Z,9.20
2019-05-17T19:01:22.878Z,10.60
2019-05-17T19:03:53.618Z,9.90
2019-05-17T19:06:23.980Z,10.57
2019-05-17T19:08:54.326Z,10.00
2019-05-17T19:11:24.738Z,11.57
2019-05-17T19:13:55.076Z,10.60
2019-05-17T19:16:25.426Z,10.60
2019-05-17T19:18:56.187Z,11.10
2019-05-17T19:21:26.530Z,33.27
2019-05-17T19:23:57.271Z,22.65
2019-05-17T19:26:28.387Z,11.67
2019-05-17T19:28:58.786Z,11.10
2019-05-17T19:31:29.176Z,11.20
2019-05-17T19:33:59.861Z,11.53
2019-05-17T19:36:30.230Z,11.40
2019-05-17T19:39:00.577Z,11.47
2019-05-17T19:41:31.339Z,11.63
2019-05-17T19:44:02.052Z,12.00
2019-05-17T19:46:32.494Z,12.47
2019-05-17T19:49:03.235Z,12.43
2019-05-17T19:51:33.584Z,11.97
2019-05-17T19:54:04.314Z,12.60
2019-05-17T19:56:35.059Z,13.00
2019-05-17T19:59:05.800Z,13.03
2019-05-17T20:01:36.227Z,14.30
2019-05-17T20:04:06.989Z,12.63
2019-05-17T20:06:37.699Z,12.27
2019-05-17T20:09:08.230Z,12.77
2019-05-17T20:11:38.598Z,13.57
2019-05-17T20:14:08.992Z,13.47
2019-05-17T20:16:39.712Z,13.00
2019-05-17T20:19:10.218Z,14.83
2019-05-17T20:21:40.932Z,15.25
2019-05-17T20:24:11.309Z,14.73
2019-05-17T20:26:41.706Z,15.03
2019-05-17T20:29:12.049Z,14.77
2019-05-17T20:31:42.849Z,15.30
2019-05-17T20:34:13.308Z,14.97
2019-05-17T20:36:43.966Z,15.07
2019-05-17T20:39:14.333Z,14.57
2019-05-17T20:41:44.731Z,15.53
2019-05-17T20:44:15.906Z,15.63
2019-05-17T20:46:46.297Z,16.87
2019-05-17T20:49:16.670Z,16.00
2019-05-17T20:51:47.082Z,15.37
2019-05-17T20:54:17.419Z,15.47
2019-05-17T20:56:47.827Z,16.50
2019-05-17T20:59:18.271Z,15.80
2019-05-17T21:01:49.069Z,16.27
2019-05-17T21:04:19.419Z,16.73
2019-05-17T21:06:49.825Z,16.67
2019-05-17T21:09:20.458Z,15.00
2019-05-17T21:11:51.200Z,15.83
2019-05-17T21:14:21.856Z,14.93
2019-05-17T21:16:52.774Z,14.80
2019-05-17T21:19:23.441Z,15.37
2019-05-17T21:21:53.838Z,15.97
2019-05-17T21:24:24.179Z,16.33
2019-05-17T21:26:54.554Z,16.53
2019-05-17T21:29:25.338Z,18.00
2019-05-17T21:31:55.747Z,17.60
2019-05-17T21:34:26.092Z,17.37
2019-05-17T21:36:56.502Z,16.83
2019-05-17T21:39:27.221Z,17.27
2019-05-17T21:41:58.003Z,16.70
2019-05-17T21:44:29.175Z,15.43
2019-05-17T21:47:04.835Z,14.93
2019-05-17T21:49:31.673Z,15.00
2019-05-17T21:52:02.284Z,15.23
2019-05-17T21:54:32.688Z,15.30
2019-05-17T21:57:03.031Z,14.97
2019-05-17T21:59:33.903Z,16.30
2019-05-17T22:02:04.301Z,15.57
2019-05-17T22:04:34.665Z,14.70
2019-05-17T22:07:05.030Z,15.63
2019-05-17T22:09:35.615Z,15.60
2019-05-17T22:12:10.496Z,16.70
2019-05-17T22:14:41.259Z,14.77
2019-05-17T22:17:11.979Z,15.30
2019-05-17T22:19:42.732Z,15.30
2019-05-17T22:22:13.248Z,15.97
2019-05-17T22:24:43.662Z,14.17
2019-05-17T22:27:14.003Z,16.23
2019-05-17T22:29:44.656Z,16.23
2019-05-17T22:32:15.077Z,15.73
2019-05-17T22:34:45.784Z,16.00
2019-05-17T22:37:17.642Z,16.20
2019-05-17T22:39:48.514Z,15.20
2019-05-17T22:42:19.336Z,16.90
2019-05-17T22:44:49.849Z,17.00
2019-05-17T22:47:21.057Z,17.63
2019-05-17T22:49:51.426Z,17.30
2019-05-17T22:52:22.536Z,16.87
2019-05-17T22:54:52.904Z,15.77
2019-05-17T22:57:23.283Z,17.10
2019-05-17T22:59:53.718Z,18.00
2019-05-17T23:02:24.357Z,17.80
2019-05-17T23:04:54.761Z,17.30
2019-05-17T23:07:25.476Z,18.17
2019-05-17T23:09:55.908Z,17.70
2019-05-17T23:12:26.204Z,18.57
2019-05-17T23:14:56.865Z,18.40
2019-05-17T23:17:27.638Z,19.43
2019-05-17T23:19:58.682Z,17.50
2019-05-17T23:22:29.248Z,17.90
2019-05-17T23:25:00.207Z,18.67
2019-05-17T23:27:30.968Z,18.60
2019-05-17T23:30:01.339Z,18.33
2019-05-17T23:32:31.691Z,19.30
2019-05-17T23:35:02.072Z,19.53
2019-05-17T23:37:32.465Z,18.87
2019-05-17T23:40:03.580Z,20.57
2019-05-17T23:42:34.444Z,19.67
2019-05-17T23:45:10.161Z,19.30
2019-05-17T23:47:40.503Z,19.83
2019-05-17T23:50:12.314Z,19.83
2019-05-17T23:52:42.885Z,20.70
2019-05-17T23:55:13.282Z,19.27
2019-05-17T23:57:44.013Z,20.70
